sensor_id;sensor_type;location;lat;lon;timestamp;pressure;altitude;pressure_sealevel;temperature;humidity
59409;BME280;45213;32.654;-115.458;2023-02-19T00:01:13;101523.66;;;23.73;14.32
59409;BME280;45213;32.654;-115.458;2023-02-19T00:03:41;101523.97;;;23.64;14.68
59409;BME280;45213;32.654;-115.458;2023-02-19T00:06:09;101515.91;;;23.40;14.26
59409;BME280;45213;32.654;-115.458;2023-02-19T00:08:37;101525.09;;;23.30;15.07
59409;BME280;45213;32.654;-115.458;2023-02-19T00:11:11;101522.97;;;23.13;14.97
59409;BME280;45213;32.654;-115.458;2023-02-19T00:13:40;101522.66;;;22.94;15.62
59409;BME280;45213;32.654;-115.458;2023-02-19T00:16:09;101521.59;;;22.70;14.79
59409;BME280;45213;32.654;-115.458;2023-02-19T00:18:36;101520.50;;;22.77;15.74
59409;BME280;45213;32.654;-115.458;2023-02-19T00:21:03;101516.94;;;22.78;15.67
59409;BME280;45213;32.654;-115.458;2023-02-19T00:23:30;101514.06;;;22.86;14.94
59409;BME280;45213;32.654;-115.458;2023-02-19T00:26:04;101521.91;;;22.89;15.73
59409;BME280;45213;32.654;-115.458;2023-02-19T00:28:31;101518.63;;;22.81;15.94
59409;BME280;45213;32.654;-115.458;2023-02-19T00:31:14;101516.81;;;22.53;16.28
59409;BME280;45213;32.654;-115.458;2023-02-19T00:33:42;101519.56;;;22.17;15.36
59409;BME280;45213;32.654;-115.458;2023-02-19T00:36:08;101510.09;;;22.07;16.22
59409;BME280;45213;32.654;-115.458;2023-02-19T00:38:35;101512.84;;;22.04;16.62
59409;BME280;45213;32.654;-115.458;2023-02-19T00:41:03;101508.56;;;21.98;16.82
59409;BME280;45213;32.654;-115.458;2023-02-19T00:43:52;101513.41;;;22.15;16.50
59409;BME280;45213;32.654;-115.458;2023-02-19T00:46:25;101516.09;;;23.34;15.39
59409;BME280;45213;32.654;-115.458;2023-02-19T00:48:53;101510.97;;;24.56;14.44
59409;BME280;45213;32.654;-115.458;2023-02-19T00:51:21;101507.84;;;25.14;13.45
59409;BME280;45213;32.654;-115.458;2023-02-19T00:53:48;101505.03;;;25.17;14.14
59409;BME280;45213;32.654;-115.458;2023-02-19T00:56:15;101509.16;;;24.80;14.07
59409;BME280;45213;32.654;-115.458;2023-02-19T00:58:42;101509.13;;;23.30;14.94
59409;BME280;45213;32.654;-115.458;2023-02-19T01:01:09;101512.25;;;21.93;16.38
59409;BME280;45213;32.654;-115.458;2023-02-19T01:03:37;101514.78;;;21.25;16.54
59409;BME280;45213;32.654;-115.458;2023-02-19T01:06:04;101511.13;;;20.94;17.44
59409;BME280;45213;32.654;-115.458;2023-02-19T01:08:32;101511.88;;;20.60;17.20
59409;BME280;45213;32.654;-115.458;2023-02-19T01:11:01;101506.91;;;20.41;19.80
59409;BME280;45213;32.654;-115.458;2023-02-19T01:13:29;101516.22;;;20.17;19.92
59409;BME280;45213;32.654;-115.458;2023-02-19T01:16:06;101513.94;;;19.97;22.32
59409;BME280;45213;32.654;-115.458;2023-02-19T01:18:34;101515.13;;;19.81;20.44
59409;BME280;45213;32.654;-115.458;2023-02-19T01:21:11;101514.44;;;19.70;22.61
59409;BME280;45213;32.654;-115.458;2023-02-19T01:23:38;101515.50;;;19.58;22.76
59409;BME280;45213;32.654;-115.458;2023-02-19T01:26:06;101509.53;;;19.44;22.10
59409;BME280;45213;32.654;-115.458;2023-02-19T01:28:34;101506.97;;;19.39;20.85
59409;BME280;45213;32.654;-115.458;2023-02-19T01:31:09;101507.25;;;19.24;21.34
59409;BME280;45213;32.654;-115.458;2023-02-19T01:33:37;101512.66;;;19.14;23.40
59409;BME280;45213;32.654;-115.458;2023-02-19T01:36:04;101513.09;;;18.84;21.50
59409;BME280;45213;32.654;-115.458;2023-02-19T01:38:32;101516.69;;;18.75;25.19
59409;BME280;45213;32.654;-115.458;2023-02-19T01:41:01;101520.41;;;18.58;21.75
59409;BME280;45213;32.654;-115.458;2023-02-19T01:43:31;101523.06;;;18.57;22.78
59409;BME280;45213;32.654;-115.458;2023-02-19T01:45:58;101523.13;;;18.52;25.67
59409;BME280;45213;32.654;-115.458;2023-02-19T01:48:36;101529.44;;;18.39;23.10
59409;BME280;45213;32.654;-115.458;2023-02-19T01:51:12;101534.72;;;18.39;25.18
59409;BME280;45213;32.654;-115.458;2023-02-19T01:53:46;101529.69;;;18.19;25.81
59409;BME280;45213;32.654;-115.458;2023-02-19T01:56:16;101531.50;;;18.11;28.71
59409;BME280;45213;32.654;-115.458;2023-02-19T01:58:44;101539.50;;;18.03;24.17
59409;BME280;45213;32.654;-115.458;2023-02-19T02:01:12;101543.91;;;18.01;26.46
59409;BME280;45213;32.654;-115.458;2023-02-19T02:03:40;101546.69;;;17.84;25.83
59409;BME280;45213;32.654;-115.458;2023-02-19T02:06:21;101545.81;;;17.82;24.42
59409;BME280;45213;32.654;-115.458;2023-02-19T02:08:52;101550.28;;;17.74;25.67
59409;BME280;45213;32.654;-115.458;2023-02-19T02:11:37;101549.53;;;17.55;23.67
59409;BME280;45213;32.654;-115.458;2023-02-19T02:14:07;101546.06;;;17.50;24.59
59409;BME280;45213;32.654;-115.458;2023-02-19T02:16:39;101546.13;;;17.41;26.07
59409;BME280;45213;32.654;-115.458;2023-02-19T02:22:17;101546.22;;;17.27;26.46
59409;BME280;45213;32.654;-115.458;2023-02-19T02:24:56;101540.13;;;17.20;26.31
59409;BME280;45213;32.654;-115.458;2023-02-19T02:27:38;101541.91;;;17.12;27.08
59409;BME280;45213;32.654;-115.458;2023-02-19T02:30:11;101549.81;;;17.12;26.93
59409;BME280;45213;32.654;-115.458;2023-02-19T02:33:10;101550.75;;;17.05;26.75
59409;BME280;45213;32.654;-115.458;2023-02-19T02:35:53;101547.25;;;17.03;27.25
59409;BME280;45213;32.654;-115.458;2023-02-19T02:38:24;101560.50;;;16.87;27.22
59409;BME280;45213;32.654;-115.458;2023-02-19T02:40:54;101562.28;;;16.79;29.61
59409;BME280;45213;32.654;-115.458;2023-02-19T02:43:21;101557.03;;;16.67;28.73
59409;BME280;45213;32.654;-115.458;2023-02-19T02:45:48;101547.44;;;16.57;27.50
59409;BME280;45213;32.654;-115.458;2023-02-19T02:48:33;101550.06;;;16.55;28.81
59409;BME280;45213;32.654;-115.458;2023-02-19T02:51:29;101554.44;;;16.48;27.93
59409;BME280;45213;32.654;-115.458;2023-02-19T02:54:11;101559.72;;;16.52;28.97
59409;BME280;45213;32.654;-115.458;2023-02-19T02:57:01;101558.88;;;16.40;30.17
59409;BME280;45213;32.654;-115.458;2023-02-19T02:59:34;101564.16;;;16.31;27.91
59409;BME280;45213;32.654;-115.458;2023-02-19T03:02:19;101565.91;;;16.32;28.40
59409;BME280;45213;32.654;-115.458;2023-02-19T03:05:20;101579.06;;;16.29;30.10
59409;BME280;45213;32.654;-115.458;2023-02-19T03:13:10;101588.69;;;16.05;29.71
59409;BME280;45213;32.654;-115.458;2023-02-19T03:16:04;101583.44;;;16.01;30.35
59409;BME280;45213;32.654;-115.458;2023-02-19T03:18:51;101587.84;;;15.88;31.54
59409;BME280;45213;32.654;-115.458;2023-02-19T03:21:39;101587.84;;;15.85;31.74
59409;BME280;45213;32.654;-115.458;2023-02-19T03:24:10;101586.97;;;15.84;31.20
59409;BME280;45213;32.654;-115.458;2023-02-19T03:26:58;101591.34;;;15.81;30.65
59409;BME280;45213;32.654;-115.458;2023-02-19T03:29:34;101593.97;;;15.73;31.87
59409;BME280;45213;32.654;-115.458;2023-02-19T03:32:23;101590.44;;;15.63;32.31
59409;BME280;45213;32.654;-115.458;2023-02-19T03:35:11;101587.81;;;15.60;32.86
59409;BME280;45213;32.654;-115.458;2023-02-19T03:37:54;101593.03;;;15.57;31.43
59409;BME280;45213;32.654;-115.458;2023-02-19T03:40:28;101591.28;;;15.52;30.75
59409;BME280;45213;32.654;-115.458;2023-02-19T03:43:28;101584.28;;;15.52;31.47
59409;BME280;45213;32.654;-115.458;2023-02-19T03:46:12;101586.03;;;15.50;31.99
59409;BME280;45213;32.654;-115.458;2023-02-19T03:48:57;101590.41;;;15.43;31.35
59409;BME280;45213;32.654;-115.458;2023-02-19T03:51:40;101583.38;;;15.36;32.78
59409;BME280;45213;32.654;-115.458;2023-02-19T03:54:13;101598.25;;;15.33;31.13
59409;BME280;45213;32.654;-115.458;2023-02-19T03:56:51;101597.34;;;15.28;32.77
59409;BME280;45213;32.654;-115.458;2023-02-19T04:02:28;101598.22;;;15.17;31.64
59409;BME280;45213;32.654;-115.458;2023-02-19T04:05:44;101606.97;;;15.18;30.49
59409;BME280;45213;32.654;-115.458;2023-02-19T04:08:07;101605.22;;;15.15;30.92
59409;BME280;45213;32.654;-115.458;2023-02-19T04:10:41;101611.31;;;15.13;33.23
59409;BME280;45213;32.654;-115.458;2023-02-19T04:13:27;101603.38;;;15.00;33.04
59409;BME280;45213;32.654;-115.458;2023-02-19T04:15:59;101613.88;;;14.97;32.08
59409;BME280;45213;32.654;-115.458;2023-02-19T04:18:31;101614.72;;;14.96;32.14
59409;BME280;45213;32.654;-115.458;2023-02-19T04:20:59;101613.88;;;14.93;33.67
59409;BME280;45213;32.654;-115.458;2023-02-19T04:23:29;101615.59;;;14.86;34.21
59409;BME280;45213;32.654;-115.458;2023-02-19T04:26:02;101617.28;;;14.79;32.83
59409;BME280;45213;32.654;-115.458;2023-02-19T04:28:30;101622.56;;;14.84;33.50
59409;BME280;45213;32.654;-115.458;2023-02-19T04:30:56;101619.91;;;14.79;32.63
59409;BME280;45213;32.654;-115.458;2023-02-19T04:33:23;101616.38;;;14.70;33.20
59409;BME280;45213;32.654;-115.458;2023-02-19T04:35:50;101621.63;;;14.70;33.61
59409;BME280;45213;32.654;-115.458;2023-02-19T04:38:16;101618.94;;;14.59;35.09
59409;BME280;45213;32.654;-115.458;2023-02-19T04:40:43;101621.50;;;14.51;33.98
59409;BME280;45213;32.654;-115.458;2023-02-19T04:43:09;101624.97;;;14.53;34.55
59409;BME280;45213;32.654;-115.458;2023-02-19T04:45:37;101624.06;;;14.45;33.87
59409;BME280;45213;32.654;-115.458;2023-02-19T04:48:04;101617.00;;;14.33;33.37
59409;BME280;45213;32.654;-115.458;2023-02-19T04:50:30;101608.25;;;14.31;34.26
59409;BME280;45213;32.654;-115.458;2023-02-19T04:52:57;101617.84;;;14.29;34.87
59409;BME280;45213;32.654;-115.458;2023-02-19T04:55:24;101626.56;;;14.28;35.02
59409;BME280;45213;32.654;-115.458;2023-02-19T04:57:50;101623.00;;;14.20;33.62
59409;BME280;45213;32.654;-115.458;2023-02-19T05:00:17;101630.03;;;14.23;33.94
59409;BME280;45213;32.654;-115.458;2023-02-19T05:02:44;101630.88;;;14.20;32.98
59409;BME280;45213;32.654;-115.458;2023-02-19T05:05:10;101627.38;;;14.18;34.86
59409;BME280;45213;32.654;-115.458;2023-02-19T05:07:37;101634.28;;;14.10;34.82
59409;BME280;45213;32.654;-115.458;2023-02-19T05:10:03;101634.28;;;14.10;35.50
59409;BME280;45213;32.654;-115.458;2023-02-19T05:12:30;101630.75;;;14.08;35.74
59409;BME280;45213;32.654;-115.458;2023-02-19T05:14:57;101632.41;;;13.96;35.19
59409;BME280;45213;32.654;-115.458;2023-02-19T05:17:23;101639.28;;;13.82;34.27
59409;BME280;45213;32.654;-115.458;2023-02-19T05:19:50;101646.22;;;13.77;34.49
59409;BME280;45213;32.654;-115.458;2023-02-19T05:22:16;101647.91;;;13.72;34.70
59409;BME280;45213;32.654;-115.458;2023-02-19T05:24:43;101649.66;;;13.70;34.35
59409;BME280;45213;32.654;-115.458;2023-02-19T05:27:10;101637.44;;;13.70;34.82
59409;BME280;45213;32.654;-115.458;2023-02-19T05:29:36;101637.41;;;13.69;34.22
59409;BME280;45213;32.654;-115.458;2023-02-19T05:32:03;101641.75;;;13.68;35.85
59409;BME280;45213;32.654;-115.458;2023-02-19T05:34:29;101636.47;;;13.61;36.59
59409;BME280;45213;32.654;-115.458;2023-02-19T05:36:56;101645.13;;;13.56;35.99
59409;BME280;45213;32.654;-115.458;2023-02-19T05:39:23;101644.25;;;13.54;35.00
59409;BME280;45213;32.654;-115.458;2023-02-19T05:41:49;101643.28;;;13.48;35.79
59409;BME280;45213;32.654;-115.458;2023-02-19T05:44:16;101644.16;;;13.45;36.82
59409;BME280;45213;32.654;-115.458;2023-02-19T05:46:42;101647.50;;;13.35;36.05
59409;BME280;45213;32.654;-115.458;2023-02-19T05:49:09;101640.50;;;13.31;36.91
59409;BME280;45213;32.654;-115.458;2023-02-19T05:51:36;101648.34;;;13.31;35.78
59409;BME280;45213;32.654;-115.458;2023-02-19T05:54:03;101645.53;;;13.19;37.11
59409;BME280;45213;32.654;-115.458;2023-02-19T05:56:39;101661.22;;;13.15;36.93
59409;BME280;45213;32.654;-115.458;2023-02-19T06:01:37;101645.22;;;12.94;36.46
59409;BME280;45213;32.654;-115.458;2023-02-19T06:04:04;101650.56;;;13.03;38.67
59409;BME280;45213;32.654;-115.458;2023-02-19T06:06:30;101658.31;;;12.94;37.73
59409;BME280;45213;32.654;-115.458;2023-02-19T06:08:57;101656.50;;;12.88;37.06
59409;BME280;45213;32.654;-115.458;2023-02-19T06:11:24;101649.50;;;12.87;38.50
59409;BME280;45213;32.654;-115.458;2023-02-19T06:13:51;101652.06;;;12.83;38.69
59409;BME280;45213;32.654;-115.458;2023-02-19T06:16:18;101653.69;;;12.74;38.67
59409;BME280;45213;32.654;-115.458;2023-02-19T06:18:45;101652.81;;;12.72;37.94
59409;BME280;45213;32.654;-115.458;2023-02-19T06:21:12;101646.69;;;12.72;37.43
59409;BME280;45213;32.654;-115.458;2023-02-19T06:23:39;101658.81;;;12.67;38.64
59409;BME280;45213;32.654;-115.458;2023-02-19T06:26:19;101653.47;;;12.59;37.02
59409;BME280;45213;32.654;-115.458;2023-02-19T06:28:47;101661.31;;;12.59;38.48
59409;BME280;45213;32.654;-115.458;2023-02-19T06:31:14;101654.22;;;12.50;37.12
59409;BME280;45213;32.654;-115.458;2023-02-19T06:33:41;101664.75;;;12.57;36.88
59409;BME280;45213;32.654;-115.458;2023-02-19T06:36:14;101663.97;;;12.62;36.32
59409;BME280;45213;32.654;-115.458;2023-02-19T06:38:42;101662.31;;;12.67;36.19
59409;BME280;45213;32.654;-115.458;2023-02-19T06:41:10;101659.59;;;12.61;36.52
59409;BME280;45213;32.654;-115.458;2023-02-19T06:43:37;101662.13;;;12.55;35.83
59409;BME280;45213;32.654;-115.458;2023-02-19T06:46:05;101664.78;;;12.58;36.45
59409;BME280;45213;32.654;-115.458;2023-02-19T06:48:33;101658.72;;;12.62;35.72
59409;BME280;45213;32.654;-115.458;2023-02-19T06:51:00;101662.22;;;12.61;36.56
59409;BME280;45213;32.654;-115.458;2023-02-19T06:53:27;101670.69;;;12.45;36.61
59409;BME280;45213;32.654;-115.458;2023-02-19T06:56:23;101660.31;;;12.51;37.41
59409;BME280;45213;32.654;-115.458;2023-02-19T06:58:48;101648.88;;;12.43;36.28
59409;BME280;45213;32.654;-115.458;2023-02-19T07:01:14;101659.25;;;12.38;36.70
59409;BME280;45213;32.654;-115.458;2023-02-19T07:03:41;101666.06;;;12.28;37.84
59409;BME280;45213;32.654;-115.458;2023-02-19T07:06:07;101664.28;;;12.24;37.03
59409;BME280;45213;32.654;-115.458;2023-02-19T07:08:34;101660.69;;;12.18;37.12
59409;BME280;45213;32.654;-115.458;2023-02-19T07:11:01;101653.88;;;12.27;36.05
59409;BME280;45213;32.654;-115.458;2023-02-19T07:13:27;101659.91;;;12.25;36.47
59409;BME280;45213;32.654;-115.458;2023-02-19T07:16:02;101666.66;;;12.12;37.57
59409;BME280;45213;32.654;-115.458;2023-02-19T07:18:30;101663.94;;;12.04;37.29
59409;BME280;45213;32.654;-115.458;2023-02-19T07:21:07;101669.09;;;12.01;38.94
59409;BME280;45213;32.654;-115.458;2023-02-19T07:23:35;101666.13;;;11.83;39.72
59409;BME280;45213;32.654;-115.458;2023-02-19T07:26:01;101666.03;;;11.77;39.17
59409;BME280;45213;32.654;-115.458;2023-02-19T07:28:29;101659.06;;;11.77;38.81
59409;BME280;45213;32.654;-115.458;2023-02-19T07:31:02;101659.13;;;11.80;38.74
59409;BME280;45213;32.654;-115.458;2023-02-19T07:33:30;101659.19;;;11.83;39.66
59409;BME280;45213;32.654;-115.458;2023-02-19T07:35:56;101654.69;;;11.75;39.04
59409;BME280;45213;32.654;-115.458;2023-02-19T07:38:24;101648.59;;;11.74;39.14
59409;BME280;45213;32.654;-115.458;2023-02-19T07:40:52;101651.13;;;11.71;38.82
59409;BME280;45213;32.654;-115.458;2023-02-19T07:43:19;101649.38;;;11.71;39.37
59409;BME280;45213;32.654;-115.458;2023-02-19T07:45:46;101638.16;;;11.74;39.46
59409;BME280;45213;32.654;-115.458;2023-02-19T07:48:13;101633.72;;;11.71;39.96
59409;BME280;45213;32.654;-115.458;2023-02-19T07:50:39;101635.34;;;11.63;39.76
59409;BME280;45213;32.654;-115.458;2023-02-19T07:53:06;101623.88;;;11.55;39.72
59409;BME280;45213;32.654;-115.458;2023-02-19T07:55:33;101629.00;;;11.50;39.77
59409;BME280;45213;32.654;-115.458;2023-02-19T07:58:00;101635.00;;;11.45;39.64
59409;BME280;45213;32.654;-115.458;2023-02-19T08:00:27;101630.78;;;11.52;39.93
59409;BME280;45213;32.654;-115.458;2023-02-19T08:02:53;101630.78;;;11.52;40.05
59409;BME280;45213;32.654;-115.458;2023-02-19T08:05:46;101619.28;;;11.42;40.82
59409;BME280;45213;32.654;-115.458;2023-02-19T08:08:15;101623.50;;;11.34;40.30
59409;BME280;45213;32.654;-115.458;2023-02-19T08:10:42;101620.53;;;11.17;40.03
59409;BME280;45213;32.654;-115.458;2023-02-19T08:13:29;101619.75;;;11.21;41.00
59409;BME280;45213;32.654;-115.458;2023-02-19T08:16:08;101618.91;;;11.22;40.39
59409;BME280;45213;32.654;-115.458;2023-02-19T08:18:35;101626.84;;;11.26;39.74
59409;BME280;45213;32.654;-115.458;2023-02-19T08:21:01;101623.31;;;11.26;40.93
59409;BME280;45213;32.654;-115.458;2023-02-19T08:23:28;101623.28;;;11.23;40.63
59409;BME280;45213;32.654;-115.458;2023-02-19T08:25:59;101615.31;;;11.17;41.37
59409;BME280;45213;32.654;-115.458;2023-02-19T08:28:28;101620.53;;;11.15;40.16
59409;BME280;45213;32.654;-115.458;2023-02-19T08:30:59;101629.09;;;11.10;39.78
59409;BME280;45213;32.654;-115.458;2023-02-19T08:33:27;101623.88;;;11.10;39.54
59409;BME280;45213;32.654;-115.458;2023-02-19T08:35:54;101629.09;;;11.10;40.14
59409;BME280;45213;32.654;-115.458;2023-02-19T08:38:21;101626.25;;;10.97;40.80
59409;BME280;45213;32.654;-115.458;2023-02-19T08:40:47;101634.84;;;10.93;40.98
59409;BME280;45213;32.654;-115.458;2023-02-19T08:43:15;101634.78;;;10.92;40.29
59409;BME280;45213;32.654;-115.458;2023-02-19T08:45:43;101637.44;;;10.93;40.44
59409;BME280;45213;32.654;-115.458;2023-02-19T08:48:11;101638.28;;;10.92;40.95
59409;BME280;45213;32.654;-115.458;2023-02-19T08:50:38;101633.78;;;10.85;40.62
59409;BME280;45213;32.654;-115.458;2023-02-19T08:53:05;101632.66;;;10.74;40.53
59409;BME280;45213;32.654;-115.458;2023-02-19T08:55:32;101631.84;;;10.76;40.92
59409;BME280;45213;32.654;-115.458;2023-02-19T08:57:59;101625.72;;;10.73;41.11
59409;BME280;45213;32.654;-115.458;2023-02-19T09:00:25;101624.75;;;10.68;40.84
59409;BME280;45213;32.654;-115.458;2023-02-19T09:02:52;101628.19;;;10.66;41.65
59409;BME280;45213;32.654;-115.458;2023-02-19T09:05:19;101631.63;;;10.65;41.33
59409;BME280;45213;32.654;-115.458;2023-02-19T09:07:45;101629.94;;;10.68;40.07
59409;BME280;45213;32.654;-115.458;2023-02-19T09:10:12;101628.19;;;10.66;40.21
59409;BME280;45213;32.654;-115.458;2023-02-19T09:12:39;101622.03;;;10.64;40.35
59409;BME280;45213;32.654;-115.458;2023-02-19T09:15:07;101628.19;;;10.66;40.21
59409;BME280;45213;32.654;-115.458;2023-02-19T09:17:33;101628.19;;;10.66;41.23
59409;BME280;45213;32.654;-115.458;2023-02-19T09:20:00;101615.72;;;10.53;38.99
59409;BME280;45213;32.654;-115.458;2023-02-19T09:22:27;101629.69;;;10.57;39.49
59409;BME280;45213;32.654;-115.458;2023-02-19T09:24:53;101624.34;;;10.51;40.28
59409;BME280;45213;32.654;-115.458;2023-02-19T09:27:20;101633.03;;;10.50;39.63
59409;BME280;45213;32.654;-115.458;2023-02-19T09:29:46;101617.31;;;10.47;38.65
59409;BME280;45213;32.654;-115.458;2023-02-19T09:32:13;101609.28;;;10.36;36.83
59409;BME280;45213;32.654;-115.458;2023-02-19T09:34:40;101610.97;;;10.35;34.49
59409;BME280;45213;32.654;-115.458;2023-02-19T09:37:07;101613.00;;;10.47;33.23
59409;BME280;45213;32.654;-115.458;2023-02-19T09:39:34;101613.22;;;10.56;32.63
59409;BME280;45213;32.654;-115.458;2023-02-19T09:42:12;101608.91;;;10.58;32.29
59409;BME280;45213;32.654;-115.458;2023-02-19T09:44:43;101618.47;;;10.59;31.44
59409;BME280;45213;32.654;-115.458;2023-02-19T09:47:24;101609.88;;;10.63;30.55
59409;BME280;45213;32.654;-115.458;2023-02-19T09:49:56;101615.25;;;10.70;32.03
59409;BME280;45213;32.654;-115.458;2023-02-19T09:52:40;101623.00;;;10.68;32.36
59409;BME280;45213;32.654;-115.458;2023-02-19T09:55:18;101615.19;;;10.68;31.74
59409;BME280;45213;32.654;-115.458;2023-02-19T09:57:48;101620.41;;;10.68;32.86
59409;BME280;45213;32.654;-115.458;2023-02-19T10:00:28;101615.09;;;10.63;33.76
59409;BME280;45213;32.654;-115.458;2023-02-19T10:05:58;101601.66;;;10.45;33.28
59409;BME280;45213;32.654;-115.458;2023-02-19T10:08:32;101605.19;;;10.47;33.43
59409;BME280;45213;32.654;-115.458;2023-02-19T10:11:03;101604.19;;;10.42;32.66
59409;BME280;45213;32.654;-115.458;2023-02-19T10:13:33;101601.56;;;10.42;31.43
59409;BME280;45213;32.654;-115.458;2023-02-19T10:16:02;101602.50;;;10.44;31.33
59409;BME280;45213;32.654;-115.458;2023-02-19T10:18:38;101597.28;;;10.44;31.34
59409;BME280;45213;32.654;-115.458;2023-02-19T10:21:09;101592.13;;;10.45;31.38
59409;BME280;45213;32.654;-115.458;2023-02-19T10:23:38;101591.25;;;10.45;33.20
59409;BME280;45213;32.654;-115.458;2023-02-19T10:26:06;101579.72;;;10.35;31.92
59409;BME280;45213;32.654;-115.458;2023-02-19T10:28:34;101591.81;;;10.32;31.48
59409;BME280;45213;32.654;-115.458;2023-02-19T10:31:10;101591.81;;;10.32;31.26
59409;BME280;45213;32.654;-115.458;2023-02-19T10:33:51;101583.25;;;10.36;31.33
59409;BME280;45213;32.654;-115.458;2023-02-19T10:36:25;101581.47;;;10.35;31.98
59409;BME280;45213;32.654;-115.458;2023-02-19T10:38:53;101581.06;;;10.19;31.39
59409;BME280;45213;32.654;-115.458;2023-02-19T10:41:22;101573.03;;;10.10;32.91
59409;BME280;45213;32.654;-115.458;2023-02-19T10:46:56;101580.94;;;10.13;34.07
59409;BME280;45213;32.654;-115.458;2023-02-19T10:49:30;101580.78;;;10.07;33.98
59409;BME280;45213;32.654;-115.458;2023-02-19T10:52:01;101586.75;;;10.01;34.21
59409;BME280;45213;32.654;-115.458;2023-02-19T10:54:33;101588.28;;;9.93;34.52
59409;BME280;45213;32.654;-115.458;2023-02-19T11:00:22;101577.00;;;9.93;33.94
59409;BME280;45213;32.654;-115.458;2023-02-19T11:03:12;101560.34;;;9.86;33.94
59409;BME280;45213;32.654;-115.458;2023-02-19T11:05:53;101549.19;;;9.92;34.93
59409;BME280;45213;32.654;-115.458;2023-02-19T11:08:22;101549.13;;;9.89;34.25
59409;BME280;45213;32.654;-115.458;2023-02-19T11:10:49;101545.59;;;9.87;33.67
59409;BME280;45213;32.654;-115.458;2023-02-19T11:13:28;101541.28;;;9.86;34.21
59409;BME280;45213;32.654;-115.458;2023-02-19T11:15:58;101549.84;;;9.83;34.78
59409;BME280;45213;32.654;-115.458;2023-02-19T11:18:27;101558.34;;;9.74;35.69
59409;BME280;45213;32.654;-115.458;2023-02-19T11:20:58;101558.53;;;9.49;34.20
59409;BME280;45213;32.654;-115.458;2023-02-19T11:26:00;101580.31;;;9.52;34.47
59409;BME280;45213;32.654;-115.458;2023-02-19T11:28:36;101569.97;;;9.55;34.12
59409;BME280;45213;32.654;-115.458;2023-02-19T11:34:21;101572.56;;;9.54;35.06
59409;BME280;45213;32.654;-115.458;2023-02-19T11:37:09;101569.63;;;9.41;36.03
59409;BME280;45213;32.654;-115.458;2023-02-19T11:39:36;101569.63;;;9.41;36.57
59409;BME280;45213;32.654;-115.458;2023-02-19T11:48:14;101569.69;;;9.45;35.63
59409;BME280;45213;32.654;-115.458;2023-02-19T11:53:33;101567.00;;;9.41;36.70
59409;BME280;45213;32.654;-115.458;2023-02-19T11:58:54;101577.00;;;9.26;36.88
59409;BME280;45213;32.654;-115.458;2023-02-19T12:10:11;101567.88;;;9.09;37.41
59409;BME280;45213;32.654;-115.458;2023-02-19T12:12:59;101564.25;;;9.04;37.66
59409;BME280;45213;32.654;-115.458;2023-02-19T12:18:53;101572.97;;;9.06;37.76
59409;BME280;45213;32.654;-115.458;2023-02-19T12:26:28;101580.50;;;8.95;37.77
59409;BME280;45213;32.654;-115.458;2023-02-19T12:31:58;101572.56;;;8.90;39.26
59409;BME280;45213;32.654;-115.458;2023-02-19T12:48:03;101578.25;;;8.78;38.38
59409;BME280;45213;32.654;-115.458;2023-02-19T12:50:34;101579.94;;;8.76;38.96
59409;BME280;45213;32.654;-115.458;2023-02-19T12:53:34;101577.38;;;8.78;38.54
59409;BME280;45213;32.654;-115.458;2023-02-19T12:56:47;101588.72;;;8.80;39.96
59409;BME280;45213;32.654;-115.458;2023-02-19T12:59:10;101594.75;;;8.79;39.79
59409;BME280;45213;32.654;-115.458;2023-02-19T13:07:13;101593.72;;;8.74;39.67
59409;BME280;45213;32.654;-115.458;2023-02-19T13:09:50;101601.47;;;8.72;40.19
59409;BME280;45213;32.654;-115.458;2023-02-19T13:12:33;101594.09;;;8.57;39.90
59409;BME280;45213;32.654;-115.458;2023-02-19T13:15:12;101599.56;;;8.67;40.51
59409;BME280;45213;32.654;-115.458;2023-02-19T13:17:45;101590.81;;;8.63;39.95
59409;BME280;45213;32.654;-115.458;2023-02-19T13:22:54;101592.34;;;8.56;40.35
59409;BME280;45213;32.654;-115.458;2023-02-19T13:28:47;101610.66;;;8.61;39.54
59409;BME280;45213;32.654;-115.458;2023-02-19T13:34:27;101603.28;;;8.46;39.75
59409;BME280;45213;32.654;-115.458;2023-02-19T13:37:00;101599.00;;;8.48;40.56
59409;BME280;45213;32.654;-115.458;2023-02-19T13:39:27;101600.59;;;8.43;40.31
59409;BME280;45213;32.654;-115.458;2023-02-19T13:41:57;101607.53;;;8.44;40.69
59409;BME280;45213;32.654;-115.458;2023-02-19T13:44:29;101605.78;;;8.43;40.64
59409;BME280;45213;32.654;-115.458;2023-02-19T13:46:57;101609.19;;;8.42;40.97
59409;BME280;45213;32.654;-115.458;2023-02-19T13:52:01;101615.31;;;8.44;41.05
59409;BME280;45213;32.654;-115.458;2023-02-19T13:54:30;101622.16;;;8.41;41.56
59409;BME280;45213;32.654;-115.458;2023-02-19T13:57:26;101616.59;;;8.30;42.46
59409;BME280;45213;32.654;-115.458;2023-02-19T13:59:56;101624.31;;;8.28;41.15
59409;BME280;45213;32.654;-115.458;2023-02-19T14:02:28;101628.78;;;8.32;42.44
59409;BME280;45213;32.654;-115.458;2023-02-19T14:04:57;101625.94;;;8.25;42.23
59409;BME280;45213;32.654;-115.458;2023-02-19T14:09:58;101639.00;;;8.28;40.27
59409;BME280;45213;32.654;-115.458;2023-02-19T14:12:32;101638.94;;;8.26;40.30
59409;BME280;45213;32.654;-115.458;2023-02-19T14:17:51;101654.56;;;8.28;40.46
59409;BME280;45213;32.654;-115.458;2023-02-19T14:20:38;101650.09;;;8.22;40.74
59409;BME280;45213;32.654;-115.458;2023-02-19T14:23:22;101659.41;;;8.17;40.59